Afton, Minnesota
Current Conditions -  °F | °C
As of 12:11 PM on Thursday 30 Oct 2014 (Local Time) from K21D Reporting Station
Overcast Overcast  
Wind Chill:   Ceiling: 5000
Heat Index:   Visibility: 10mi
Dew Point:   Wind: 3mph
Humidity: 71%   Direction: 360°N
Pressure: 30.1"   Gusts: NA
Location:  44.9°N, 92.78°W
Report Text: K21D 301711Z AUTO 36003KT 10SM OVC050 08/03 A3010 RMK AO2
Loading
Personal Weather Stations






























Interactive Weather Map
Tropical Storm Tracking
New forecast layout! Learn more

10-Day Weather Forecast

Advertisements
Track Severe Weather on mobile